createdAt,value
2023-01-01T00:00:27.700Z,24
2023-01-01T00:01:27.686Z,24
2023-01-01T00:02:27.667Z,24
2023-01-01T00:03:27.683Z,24
2023-01-01T00:04:27.649Z,24
2023-01-01T00:05:27.643Z,24
2023-01-01T00:06:27.629Z,24
2023-01-01T00:07:27.637Z,24
2023-01-01T00:08:27.609Z,24
2023-01-01T00:09:27.596Z,24
2023-01-01T00:10:27.624Z,24
2023-01-01T00:11:27.606Z,24
2023-01-01T00:12:27.577Z,24
2023-01-01T00:13:27.556Z,24
2023-01-01T00:14:27.543Z,24
2023-01-01T00:15:27.550Z,24
2023-01-01T00:16:27.536Z,24
2023-01-01T00:17:27.550Z,24
2023-01-01T00:18:27.523Z,24
2023-01-01T00:19:27.498Z,24
2023-01-01T00:20:27.498Z,24
2023-01-01T00:21:27.468Z,24
2023-01-01T00:22:27.480Z,24
2023-01-01T00:23:27.457Z,24
2023-01-01T00:24:27.444Z,24
2023-01-01T00:25:27.431Z,24
2023-01-01T00:26:27.464Z,24
2023-01-01T00:27:27.410Z,24
2023-01-01T00:28:27.419Z,24
2023-01-01T00:29:27.407Z,24
2023-01-01T00:30:27.371Z,24
2023-01-01T00:31:27.363Z,24
2023-01-01T00:32:27.359Z,24
2023-01-01T00:33:27.359Z,24
2023-01-01T00:34:27.341Z,24
2023-01-01T00:35:27.321Z,24
2023-01-01T00:36:27.315Z,24
2023-01-01T00:37:27.335Z,24
2023-01-01T00:38:27.291Z,24
2023-01-01T00:39:27.280Z,24
2023-01-01T00:40:27.305Z,24
2023-01-01T00:41:27.264Z,24
2023-01-01T00:42:27.290Z,24
2023-01-01T00:43:27.240Z,24
2023-01-01T00:44:27.229Z,24
2023-01-01T00:45:27.215Z,24
2023-01-01T00:46:27.228Z,24
2023-01-01T00:47:27.198Z,24
2023-01-01T00:48:27.186Z,24
2023-01-01T00:49:27.195Z,24
2023-01-01T00:50:27.164Z,24
2023-01-01T00:51:27.162Z,24
2023-01-01T00:52:27.174Z,24
2023-01-01T00:53:27.139Z,24
2023-01-01T00:54:27.124Z,24
2023-01-01T00:55:27.255Z,24
2023-01-01T00:56:27.096Z,24
2023-01-01T00:57:27.096Z,24
2023-01-01T00:58:27.088Z,24
2023-01-01T00:59:27.085Z,24
2023-01-01T01:00:27.062Z,24
2023-01-01T01:01:27.051Z,24
2023-01-01T01:02:27.042Z,24
2023-01-01T01:03:27.026Z,24
2023-01-01T01:04:27.014Z,24
2023-01-01T01:05:27.049Z,24
2023-01-01T01:06:26.999Z,24
2023-01-01T01:07:26.984Z,24
2023-01-01T01:08:26.976Z,24
2023-01-01T01:09:26.964Z,24
2023-01-01T01:10:26.952Z,24
2023-01-01T01:11:26.945Z,24
2023-01-01T01:12:26.951Z,24
2023-01-01T01:13:26.929Z,24
2023-01-01T01:14:26.923Z,24
2023-01-01T01:15:26.904Z,24
2023-01-01T01:16:26.891Z,24
2023-01-01T01:17:26.891Z,24
2023-01-01T01:18:26.882Z,24
2023-01-01T01:19:26.864Z,24
2023-01-01T01:20:26.902Z,24
2023-01-01T01:21:26.847Z,24
2023-01-01T01:22:26.874Z,24
2023-01-01T01:23:26.819Z,24
2023-01-01T01:24:26.807Z,24
2023-01-01T01:25:26.806Z,24
2023-01-01T01:26:26.818Z,24
2023-01-01T01:27:26.779Z,24
2023-01-01T01:28:26.763Z,24
2023-01-01T01:29:26.754Z,24
2023-01-01T01:30:26.751Z,24
2023-01-01T01:31:26.734Z,24
2023-01-01T01:32:26.725Z,24
2023-01-01T01:33:26.713Z,24
2023-01-01T01:34:26.729Z,24
2023-01-01T01:35:26.741Z,24
2023-01-01T01:36:26.708Z,24
2023-01-01T01:37:26.673Z,24
2023-01-01T01:38:26.665Z,24
2023-01-01T01:39:26.656Z,24
2023-01-01T01:40:26.678Z,24
2023-01-01T01:41:26.629Z,24
2023-01-01T01:42:26.617Z,24
2023-01-01T01:43:26.627Z,24
2023-01-01T01:44:26.616Z,24
2023-01-01T01:45:26.597Z,24
2023-01-01T01:46:26.628Z,24
2023-01-01T01:47:26.614Z,24
2023-01-01T01:48:26.556Z,24
2023-01-01T01:49:26.545Z,24
2023-01-01T01:50:26.594Z,24
2023-01-01T01:51:26.552Z,24
2023-01-01T01:52:26.531Z,24
2023-01-01T01:53:26.502Z,24
2023-01-01T01:54:26.492Z,24
2023-01-01T01:55:26.514Z,24
2023-01-01T01:56:26.477Z,24
2023-01-01T01:57:26.463Z,24
2023-01-01T01:58:26.445Z,24
2023-01-01T01:59:26.474Z,24
2023-01-01T02:00:26.430Z,24
2023-01-01T02:01:26.414Z,24
2023-01-01T02:02:26.429Z,24
2023-01-01T02:03:26.405Z,24
2023-01-01T02:04:26.387Z,24
2023-01-01T02:05:26.746Z,24
2023-01-01T02:06:26.361Z,24
2023-01-01T02:07:26.373Z,24
2023-01-01T02:08:26.345Z,24
2023-01-01T02:09:26.330Z,24
2023-01-01T02:10:26.315Z,24
2023-01-01T02:11:26.314Z,24
2023-01-01T02:12:26.300Z,24
2023-01-01T02:13:26.289Z,24
2023-01-01T02:14:26.300Z,24
2023-01-01T02:15:26.263Z,24
2023-01-01T02:16:26.264Z,24
2023-01-01T02:17:26.245Z,24
2023-01-01T02:18:26.235Z,24
2023-01-01T02:19:26.231Z,24
2023-01-01T02:20:26.226Z,24
2023-01-01T02:21:26.216Z,24
2023-01-01T02:22:26.192Z,24
2023-01-01T02:23:26.187Z,24
2023-01-01T02:24:26.194Z,24
2023-01-01T02:25:26.176Z,24
2023-01-01T02:26:26.299Z,24
2023-01-01T02:27:26.215Z,24
2023-01-01T02:28:26.122Z,24
2023-01-01T02:29:26.111Z,24
2023-01-01T02:30:26.112Z,24
2023-01-01T02:31:26.123Z,24
2023-01-01T02:32:26.086Z,24
2023-01-01T02:33:26.133Z,24
2023-01-01T02:34:26.058Z,24
2023-01-01T02:35:26.059Z,24
2023-01-01T02:36:26.047Z,24
2023-01-01T02:37:26.029Z,24
2023-01-01T02:38:26.082Z,24
2023-01-01T02:39:26.002Z,24
2023-01-01T02:40:26.007Z,24
2023-01-01T02:41:25.985Z,24
2023-01-01T02:42:25.974Z,24
2023-01-01T02:43:25.982Z,24
2023-01-01T02:44:25.960Z,24
2023-01-01T02:45:25.939Z,24
2023-01-01T02:46:25.938Z,24
2023-01-01T02:47:25.931Z,24
2023-01-01T02:48:25.918Z,24
2023-01-01T02:49:25.918Z,24
2023-01-01T02:50:25.934Z,24
2023-01-01T02:51:25.908Z,24
2023-01-01T02:52:25.867Z,24
2023-01-01T02:53:25.899Z,24
2023-01-01T02:54:25.854Z,24
2023-01-01T02:55:25.899Z,24
2023-01-01T02:56:25.893Z,24
2023-01-01T02:57:25.853Z,24
2023-01-01T02:58:25.828Z,24
2023-01-01T02:59:25.800Z,24
2023-01-01T03:00:25.794Z,24
2023-01-01T03:01:25.828Z,24
2023-01-01T03:02:25.829Z,24
2023-01-01T03:03:25.755Z,24
2023-01-01T03:04:25.748Z,24
2023-01-01T03:05:25.750Z,24
2023-01-01T03:06:25.738Z,24
2023-01-01T03:07:25.710Z,24
2023-01-01T03:08:25.738Z,24
2023-01-01T03:09:25.691Z,24
2023-01-01T03:10:25.686Z,24
2023-01-01T03:11:25.689Z,24
2023-01-01T03:12:25.706Z,24
2023-01-01T03:13:25.651Z,24
2023-01-01T03:14:25.637Z,24
2023-01-01T03:15:25.831Z,24
2023-01-01T03:16:25.622Z,24
2023-01-01T03:17:25.604Z,24
2023-01-01T03:18:25.663Z,24
2023-01-01T03:19:25.591Z,24
2023-01-01T03:20:25.732Z,24
2023-01-01T03:21:25.604Z,24
2023-01-01T03:22:25.549Z,24
2023-01-01T03:23:25.578Z,24
2023-01-01T03:24:25.530Z,24
2023-01-01T03:25:25.527Z,24
2023-01-01T03:26:25.508Z,24
2023-01-01T03:27:25.675Z,24
2023-01-01T03:28:25.685Z,24
2023-01-01T03:29:25.481Z,24
2023-01-01T03:30:25.464Z,24
2023-01-01T03:31:25.465Z,24
2023-01-01T03:32:25.448Z,24
2023-01-01T03:33:25.433Z,24
2023-01-01T03:34:25.461Z,24
2023-01-01T03:35:25.411Z,24
2023-01-01T03:36:25.534Z,24
2023-01-01T03:37:25.391Z,24
2023-01-01T03:38:25.382Z,24
2023-01-01T03:39:25.374Z,24
2023-01-01T03:40:25.374Z,24
2023-01-01T03:41:25.358Z,24
2023-01-01T03:42:25.345Z,24
2023-01-01T03:43:25.353Z,24
2023-01-01T03:44:25.315Z,24
2023-01-01T03:45:25.302Z,24
2023-01-01T03:46:25.313Z,24
2023-01-01T03:47:25.294Z,24
2023-01-01T03:48:25.272Z,24
2023-01-01T03:49:25.268Z,24
2023-01-01T03:50:25.259Z,24
2023-01-01T03:51:25.242Z,24
2023-01-01T03:52:25.232Z,24
2023-01-01T03:53:25.234Z,24
2023-01-01T03:54:25.243Z,24
2023-01-01T03:55:25.207Z,24
2023-01-01T03:56:25.218Z,24
2023-01-01T03:57:25.196Z,24
2023-01-01T03:58:25.181Z,24
2023-01-01T03:59:25.152Z,24
2023-01-01T04:00:25.147Z,24
2023-01-01T04:01:25.133Z,24
2023-01-01T04:02:25.182Z,24
2023-01-01T04:03:25.110Z,24
2023-01-01T04:04:25.161Z,24
2023-01-01T04:05:25.097Z,24
2023-01-01T04:06:25.077Z,24
2023-01-01T04:07:25.074Z,24
2023-01-01T04:08:25.065Z,28
2023-01-01T04:09:25.046Z,24
2023-01-01T04:10:25.033Z,24
2023-01-01T04:11:25.022Z,24
2023-01-01T04:12:25.026Z,24
2023-01-01T04:13:24.999Z,24
2023-01-01T04:14:24.988Z,24
2023-01-01T04:15:24.982Z,24
2023-01-01T04:16:24.971Z,24
2023-01-01T04:17:24.959Z,24
2023-01-01T04:18:25.061Z,24
2023-01-01T04:19:24.934Z,24
2023-01-01T04:20:24.932Z,24
2023-01-01T04:21:24.916Z,24
2023-01-01T04:22:24.908Z,24
2023-01-01T04:23:24.895Z,24
2023-01-01T04:24:24.887Z,24
2023-01-01T04:25:24.870Z,24
2023-01-01T04:26:24.862Z,24
2023-01-01T04:27:24.852Z,24
2023-01-01T04:28:24.845Z,24
2023-01-01T04:29:24.828Z,24
2023-01-01T04:30:24.835Z,24
2023-01-01T04:31:24.804Z,24
2023-01-01T04:32:24.795Z,24
2023-01-01T04:33:24.784Z,24
2023-01-01T04:34:24.771Z,24
2023-01-01T04:35:24.761Z,24
2023-01-01T04:36:24.786Z,24
2023-01-01T04:37:24.744Z,24
2023-01-01T04:38:24.732Z,24
2023-01-01T04:39:24.721Z,24
2023-01-01T04:40:24.719Z,24
2023-01-01T04:41:24.703Z,24
2023-01-01T04:42:24.688Z,24
2023-01-01T04:43:24.686Z,24
2023-01-01T04:44:24.669Z,24
2023-01-01T04:45:24.655Z,24
2023-01-01T04:46:24.657Z,24
2023-01-01T04:47:24.633Z,24
2023-01-01T04:48:24.633Z,24
2023-01-01T04:49:24.613Z,24
2023-01-01T04:50:24.604Z,24
2023-01-01T04:51:24.603Z,24
2023-01-01T04:52:24.578Z,24
2023-01-01T04:53:24.571Z,24
2023-01-01T04:54:24.561Z,24
2023-01-01T04:55:24.550Z,24
2023-01-01T04:56:24.539Z,24
2023-01-01T04:57:24.522Z,24
2023-01-01T04:58:24.529Z,24
2023-01-01T04:59:24.519Z,24
2023-01-01T05:00:24.491Z,24
2023-01-01T05:01:24.495Z,24
2023-01-01T05:02:24.468Z,24
2023-01-01T05:03:24.464Z,24
2023-01-01T05:04:24.453Z,24
2023-01-01T05:05:24.451Z,24
2023-01-01T05:06:24.432Z,24
2023-01-01T05:07:24.422Z,24
2023-01-01T05:08:24.402Z,24
2023-01-01T05:09:24.390Z,24
2023-01-01T05:10:24.386Z,24
2023-01-01T05:11:24.371Z,24
2023-01-01T05:12:24.358Z,24
2023-01-01T05:13:24.369Z,24
2023-01-01T05:14:24.339Z,24
2023-01-01T05:15:24.333Z,24
2023-01-01T05:16:24.319Z,24
2023-01-01T05:17:24.305Z,24
2023-01-01T05:18:24.299Z,24
2023-01-01T05:19:24.298Z,24
2023-01-01T05:20:24.279Z,24
2023-01-01T05:21:24.267Z,24
2023-01-01T05:22:24.250Z,24
2023-01-01T05:23:24.238Z,24
2023-01-01T05:24:24.232Z,24
2023-01-01T05:25:24.244Z,24
2023-01-01T05:26:24.216Z,24
2023-01-01T05:27:24.199Z,24
2023-01-01T05:28:24.191Z,24
2023-01-01T05:29:24.175Z,24
2023-01-01T05:30:24.167Z,24
2023-01-01T05:31:24.171Z,24
2023-01-01T05:32:24.170Z,24
2023-01-01T05:33:24.131Z,24
2023-01-01T05:34:24.121Z,24
2023-01-01T05:35:24.120Z,24
2023-01-01T05:36:24.099Z,24
2023-01-01T05:37:24.113Z,24
2023-01-01T05:38:24.078Z,24
2023-01-01T05:39:24.068Z,24
2023-01-01T05:40:24.056Z,24
2023-01-01T05:41:24.049Z,24
2023-01-01T05:42:24.034Z,24
2023-01-01T05:43:24.028Z,24
2023-01-01T05:44:24.024Z,24
2023-01-01T05:45:24.006Z,24
2023-01-01T05:46:23.992Z,24
2023-01-01T05:47:23.979Z,24
2023-01-01T05:48:23.974Z,24
2023-01-01T05:49:23.959Z,24
2023-01-01T05:50:23.952Z,24
2023-01-01T05:51:23.940Z,24
2023-01-01T05:52:23.926Z,24
2023-01-01T05:53:23.917Z,24
2023-01-01T05:54:23.899Z,24
2023-01-01T05:55:23.894Z,24
2023-01-01T05:56:23.888Z,24
2023-01-01T05:57:23.868Z,24
2023-01-01T05:58:23.857Z,24
2023-01-01T05:59:23.846Z,24
2023-01-01T06:00:23.836Z,24
2023-01-01T06:01:23.827Z,24
2023-01-01T06:02:23.836Z,24
2023-01-01T06:06:21.743Z,24
2023-01-01T06:07:21.407Z,24
2023-01-01T06:08:21.387Z,24
2023-01-01T06:09:21.406Z,24
2023-01-01T06:10:22.337Z,24
2023-01-01T06:11:21.319Z,24
2023-01-01T06:12:21.316Z,24
2023-01-01T06:13:21.295Z,24
2023-01-01T06:14:21.288Z,24
2023-01-01T06:15:21.291Z,24
2023-01-01T06:16:21.261Z,24
2023-01-01T06:17:21.252Z,24
2023-01-01T06:18:21.244Z,24
2023-01-01T06:19:21.233Z,24
2023-01-01T06:20:21.227Z,24
2023-01-01T06:21:21.211Z,24
2023-01-01T06:22:21.199Z,24
2023-01-01T06:23:21.190Z,24
2023-01-01T06:24:21.186Z,24
2023-01-01T06:25:21.166Z,24
2023-01-01T06:26:21.162Z,24
2023-01-01T06:27:21.149Z,24
2023-01-01T06:28:21.137Z,24
2023-01-01T06:29:21.128Z,24
2023-01-01T06:30:21.110Z,24
2023-01-01T06:31:21.097Z,24
2023-01-01T06:32:21.097Z,24
2023-01-01T06:33:21.082Z,24
2023-01-01T06:34:21.081Z,24
2023-01-01T06:35:21.057Z,24
2023-01-01T06:36:21.055Z,24
2023-01-01T06:37:21.042Z,24
2023-01-01T06:38:21.020Z,24
2023-01-01T06:39:21.013Z,24
2023-01-01T06:40:21.020Z,24
2023-01-01T06:41:20.995Z,24
2023-01-01T06:42:20.977Z,24
2023-01-01T06:43:21.039Z,24
2023-01-01T06:44:20.958Z,24
2023-01-01T06:45:20.954Z,24
2023-01-01T06:46:20.951Z,24
2023-01-01T06:47:20.933Z,24
2023-01-01T06:48:20.913Z,24
2023-01-01T06:49:20.918Z,24
2023-01-01T06:50:20.894Z,24
2023-01-01T06:51:20.882Z,24
2023-01-01T06:52:20.875Z,24
2023-01-01T06:53:20.866Z,24
2023-01-01T06:54:20.847Z,24
2023-01-01T06:55:20.844Z,24
2023-01-01T06:56:20.827Z,24
2023-01-01T06:57:20.815Z,24
2023-01-01T06:58:20.809Z,24
2023-01-01T06:59:20.797Z,24
2023-01-01T07:00:20.794Z,24
2023-01-01T07:01:20.785Z,24
2023-01-01T07:02:20.771Z,28
2023-01-01T07:03:20.787Z,28
2023-01-01T07:04:20.752Z,28
2023-01-01T07:05:20.725Z,28
2023-01-01T07:06:20.718Z,24
2023-01-01T07:07:20.708Z,24
2023-01-01T07:08:20.698Z,28
2023-01-01T07:09:20.691Z,28
2023-01-01T07:10:20.671Z,28
2023-01-01T07:11:20.662Z,28
2023-01-01T07:12:20.652Z,28
2023-01-01T07:13:20.642Z,32
2023-01-01T07:14:20.630Z,28
2023-01-01T07:15:20.623Z,32
2023-01-01T07:16:20.625Z,28
2023-01-01T07:17:20.601Z,32
2023-01-01T07:18:20.593Z,32
2023-01-01T07:19:20.572Z,36
2023-01-01T07:20:20.561Z,36
2023-01-01T07:21:20.553Z,24
2023-01-01T07:22:20.554Z,24
2023-01-01T07:23:20.530Z,32
2023-01-01T07:24:20.518Z,28
2023-01-01T07:25:20.510Z,32
2023-01-01T07:26:20.495Z,32
2023-01-01T07:27:20.491Z,36
2023-01-01T07:28:20.494Z,40
2023-01-01T07:29:20.467Z,44
2023-01-01T07:30:20.463Z,40
2023-01-01T07:31:20.443Z,36
2023-01-01T07:32:20.435Z,40
2023-01-01T07:33:20.422Z,36
2023-01-01T07:34:20.426Z,40
2023-01-01T07:35:20.401Z,44
2023-01-01T07:36:20.388Z,48
2023-01-01T07:37:20.377Z,60
2023-01-01T07:38:20.366Z,64
2023-01-01T07:39:20.535Z,68
2023-01-01T07:40:20.339Z,72
2023-01-01T07:41:20.349Z,80
2023-01-01T07:42:20.377Z,96
2023-01-01T07:43:20.309Z,104
2023-01-01T07:44:20.306Z,124
2023-01-01T07:45:20.361Z,144
2023-01-01T07:46:20.281Z,156
2023-01-01T07:47:20.266Z,176
2023-01-01T07:48:20.264Z,196
2023-01-01T07:49:20.246Z,216
2023-01-01T07:50:20.240Z,244
2023-01-01T07:51:20.233Z,300
2023-01-01T07:52:20.213Z,344
2023-01-01T07:53:20.203Z,392
2023-01-01T07:54:20.189Z,420
2023-01-01T07:55:20.192Z,420
2023-01-01T07:56:20.210Z,384
2023-01-01T07:57:20.165Z,368
2023-01-01T07:58:20.212Z,364
2023-01-01T07:59:20.149Z,380
2023-01-01T08:00:20.125Z,380
2023-01-01T08:01:20.123Z,372
2023-01-01T08:02:20.126Z,360
2023-01-01T08:03:20.090Z,316
2023-01-01T08:04:20.078Z,260
2023-01-01T08:05:20.070Z,232
2023-01-01T08:06:20.058Z,208
2023-01-01T08:07:20.118Z,184
2023-01-01T08:08:20.080Z,176
2023-01-01T08:09:20.081Z,168
2023-01-01T08:10:20.052Z,168
2023-01-01T08:11:20.011Z,180
2023-01-01T08:12:20.014Z,192
2023-01-01T08:13:19.991Z,200
2023-01-01T08:14:19.984Z,232
2023-01-01T08:15:19.971Z,268
2023-01-01T08:16:19.950Z,292
2023-01-01T08:17:19.958Z,316
2023-01-01T08:18:19.931Z,344
2023-01-01T08:19:19.920Z,340
2023-01-01T08:20:19.932Z,368
2023-01-01T08:21:19.896Z,376
2023-01-01T08:22:19.892Z,376
2023-01-01T08:23:19.878Z,364
2023-01-01T08:24:19.923Z,388
2023-01-01T08:25:19.874Z,416
2023-01-01T08:26:19.837Z,464
2023-01-01T08:27:19.846Z,536
2023-01-01T08:28:19.816Z,560
2023-01-01T08:29:19.822Z,620
2023-01-01T08:30:19.806Z,700
2023-01-01T08:31:19.783Z,676
2023-01-01T08:32:19.775Z,604
2023-01-01T08:33:19.761Z,624
2023-01-01T08:34:19.750Z,552
2023-01-01T08:35:19.741Z,524
2023-01-01T08:36:19.742Z,516
2023-01-01T08:37:19.726Z,524
2023-01-01T08:38:19.721Z,556
2023-01-01T08:39:19.698Z,500
2023-01-01T08:40:19.685Z,484
2023-01-01T08:41:19.685Z,504
2023-01-01T08:42:19.695Z,552
2023-01-01T08:43:19.663Z,588
2023-01-01T08:44:19.643Z,640
2023-01-01T08:45:19.634Z,596
2023-01-01T08:46:19.622Z,508
2023-01-01T08:47:19.615Z,440
2023-01-01T08:48:19.608Z,408
2023-01-01T08:49:19.589Z,424
2023-01-01T08:50:19.585Z,440
2023-01-01T08:51:19.569Z,452
2023-01-01T08:52:19.555Z,488
2023-01-01T08:53:19.554Z,504
2023-01-01T08:54:19.538Z,488
2023-01-01T08:55:19.528Z,472
2023-01-01T08:56:19.521Z,484
2023-01-01T08:57:19.509Z,476
2023-01-01T08:58:19.495Z,452
2023-01-01T08:59:19.483Z,464
2023-01-01T09:00:19.511Z,492
2023-01-01T09:01:19.463Z,540
2023-01-01T09:02:19.448Z,600
2023-01-01T09:03:19.445Z,600
2023-01-01T09:04:19.434Z,580
2023-01-01T09:05:19.443Z,620
2023-01-01T09:06:19.482Z,652
2023-01-01T09:07:19.404Z,640
2023-01-01T09:08:19.384Z,660
2023-01-01T09:09:19.371Z,704
2023-01-01T09:10:19.375Z,652
2023-01-01T09:11:19.349Z,584
2023-01-01T09:12:19.349Z,584
2023-01-01T09:13:19.331Z,504
2023-01-01T09:14:19.321Z,464
2023-01-01T09:15:19.308Z,496
2023-01-01T09:16:19.301Z,516
2023-01-01T09:17:19.285Z,504
2023-01-01T09:18:19.274Z,508
2023-01-01T09:19:19.272Z,468
2023-01-01T09:20:19.254Z,448
2023-01-01T09:21:19.246Z,400
2023-01-01T09:22:19.235Z,376
2023-01-01T09:23:19.219Z,348
2023-01-01T09:24:19.210Z,352
2023-01-01T09:25:19.212Z,360
2023-01-01T09:26:19.189Z,372
2023-01-01T09:27:19.180Z,396
2023-01-01T09:28:19.180Z,404
2023-01-01T09:29:19.157Z,436
2023-01-01T09:30:19.144Z,396
2023-01-01T09:31:19.141Z,392
2023-01-01T09:32:19.127Z,368
2023-01-01T09:33:19.110Z,348
2023-01-01T09:34:19.139Z,388
2023-01-01T09:35:19.090Z,400
2023-01-01T09:36:19.087Z,328
2023-01-01T09:37:19.074Z,312
2023-01-01T09:38:19.060Z,304
2023-01-01T09:39:19.050Z,320
2023-01-01T09:40:19.057Z,320
2023-01-01T09:41:19.085Z,316
2023-01-01T09:42:19.059Z,324
2023-01-01T09:43:19.014Z,312
2023-01-01T09:44:19.037Z,328
2023-01-01T09:45:18.991Z,344
2023-01-01T09:46:18.978Z,400
2023-01-01T09:47:18.979Z,452
2023-01-01T09:48:18.956Z,476
2023-01-01T09:49:18.949Z,536
2023-01-01T09:50:18.945Z,512
2023-01-01T09:51:18.954Z,472
2023-01-01T09:52:18.934Z,468
2023-01-01T09:53:18.908Z,512
2023-01-01T09:54:18.914Z,556
2023-01-01T09:55:18.907Z,524
2023-01-01T09:56:18.877Z,492
2023-01-01T09:57:18.875Z,488
2023-01-01T09:58:18.855Z,460
2023-01-01T09:59:18.844Z,412
2023-01-01T10:00:18.833Z,436
2023-01-01T10:01:18.845Z,400
2023-01-01T10:02:18.812Z,408
2023-01-01T10:03:18.832Z,444
2023-01-01T10:04:18.790Z,432
2023-01-01T10:05:18.788Z,380
2023-01-01T10:06:18.768Z,484
2023-01-01T10:07:18.764Z,552
2023-01-01T10:08:18.755Z,532
2023-01-01T10:09:18.739Z,484
2023-01-01T10:10:18.725Z,512
2023-01-01T10:11:18.716Z,528
2023-01-01T10:12:18.711Z,496
2023-01-01T10:13:18.700Z,424
2023-01-01T10:14:18.701Z,384
2023-01-01T10:15:18.679Z,344
2023-01-01T10:16:18.668Z,332
2023-01-01T10:17:18.659Z,344
2023-01-01T10:18:18.656Z,316
2023-01-01T10:19:18.633Z,324
2023-01-01T10:20:18.651Z,344
2023-01-01T10:21:18.617Z,336
2023-01-01T10:22:18.609Z,336
2023-01-01T10:23:18.594Z,348
2023-01-01T10:24:18.581Z,344
2023-01-01T10:25:18.573Z,380
2023-01-01T10:26:18.567Z,464
2023-01-01T10:27:18.552Z,492
2023-01-01T10:28:18.542Z,460
2023-01-01T10:29:18.525Z,412
2023-01-01T10:30:18.517Z,392
2023-01-01T10:31:18.506Z,476
2023-01-01T10:32:18.505Z,432
2023-01-01T10:33:18.519Z,388
2023-01-01T10:34:18.494Z,368
2023-01-01T10:35:18.487Z,356
2023-01-01T10:36:18.454Z,380
2023-01-01T10:37:18.555Z,416
2023-01-01T10:38:18.442Z,380
2023-01-01T10:39:18.438Z,332
2023-01-01T10:40:18.433Z,328
2023-01-01T10:41:18.401Z,316
2023-01-01T10:42:18.402Z,316
2023-01-01T10:43:18.379Z,312
2023-01-01T10:44:18.367Z,300
2023-01-01T10:45:18.381Z,304
2023-01-01T10:46:18.350Z,336
2023-01-01T10:47:18.338Z,388
2023-01-01T10:48:18.326Z,392
2023-01-01T10:49:18.313Z,368
2023-01-01T10:50:18.309Z,376
2023-01-01T10:51:18.299Z,476
2023-01-01T10:52:18.284Z,520
2023-01-01T10:53:18.276Z,600
2023-01-01T10:54:18.331Z,628
2023-01-01T10:55:18.257Z,520
2023-01-01T10:56:18.241Z,496
2023-01-01T10:57:18.238Z,576
2023-01-01T10:58:18.219Z,584
2023-01-01T10:59:18.522Z,652
2023-01-01T11:00:18.198Z,592
2023-01-01T11:01:18.194Z,508
2023-01-01T11:02:18.177Z,548
2023-01-01T11:03:18.169Z,572
2023-01-01T11:04:18.171Z,600
2023-01-01T11:05:18.146Z,504
2023-01-01T11:06:18.146Z,460
2023-01-01T11:07:18.135Z,440
2023-01-01T11:08:18.137Z,412
2023-01-01T11:09:18.110Z,388
2023-01-01T11:10:18.096Z,400
2023-01-01T11:11:18.112Z,416
2023-01-01T11:12:18.073Z,408
2023-01-01T11:13:18.075Z,392
2023-01-01T11:14:18.056Z,392
2023-01-01T11:15:18.084Z,396
2023-01-01T11:16:18.034Z,400
2023-01-01T11:17:18.025Z,428
2023-01-01T11:18:18.009Z,444
2023-01-01T11:19:18.004Z,448
2023-01-01T11:20:17.994Z,492
2023-01-01T11:21:17.976Z,512
2023-01-01T11:22:17.979Z,532
2023-01-01T11:23:17.970Z,572
2023-01-01T11:24:17.947Z,540
2023-01-01T11:25:17.938Z,528
2023-01-01T11:26:17.929Z,544
2023-01-01T11:27:17.924Z,536
2023-01-01T11:28:17.903Z,512
2023-01-01T11:29:17.908Z,580
2023-01-01T11:30:17.888Z,680
2023-01-01T11:31:17.873Z,828
2023-01-01T11:32:17.864Z,796
2023-01-01T11:33:17.868Z,836
2023-01-01T11:34:17.864Z,744
2023-01-01T11:35:17.837Z,732
2023-01-01T11:36:17.834Z,680
2023-01-01T11:37:17.825Z,600
2023-01-01T11:38:17.804Z,624
2023-01-01T11:39:17.812Z,612
2023-01-01T11:40:17.787Z,564
2023-01-01T11:41:17.791Z,556
2023-01-01T11:42:17.792Z,640
2023-01-01T11:43:17.816Z,692
2023-01-01T11:44:17.742Z,620
2023-01-01T11:45:17.725Z,616
2023-01-01T11:46:17.720Z,608
2023-01-01T11:47:17.717Z,596
2023-01-01T11:48:17.694Z,604
2023-01-01T11:49:17.683Z,640
2023-01-01T11:50:17.717Z,588
2023-01-01T11:51:17.662Z,544
2023-01-01T11:52:17.652Z,552
2023-01-01T11:53:17.684Z,528
2023-01-01T11:54:17.629Z,524
2023-01-01T11:55:17.672Z,528
2023-01-01T11:56:17.661Z,616
2023-01-01T11:57:17.651Z,748
2023-01-01T11:58:17.594Z,688
2023-01-01T11:59:17.615Z,660
2023-01-01T12:00:17.641Z,648
2023-01-01T12:01:17.561Z,792
2023-01-01T12:02:17.564Z,800
2023-01-01T12:03:17.559Z,820
2023-01-01T12:04:17.526Z,872
2023-01-01T12:05:17.512Z,900
2023-01-01T12:06:17.534Z,912
2023-01-01T12:07:17.497Z,940
2023-01-01T12:08:17.481Z,840
2023-01-01T12:09:17.490Z,932
2023-01-01T12:10:17.464Z,952
2023-01-01T12:11:17.447Z,936
2023-01-01T12:12:17.440Z,932
2023-01-01T12:13:17.430Z,964
2023-01-01T12:14:17.420Z,1052
2023-01-01T12:15:17.420Z,1192
2023-01-01T12:31:14.949Z,1672
2023-01-01T12:32:15.880Z,1376
2023-01-01T12:33:14.869Z,1400
2023-01-01T12:34:14.976Z,1192
2023-01-01T12:35:14.885Z,1036
2023-01-01T12:36:14.867Z,1248
2023-01-01T12:37:14.828Z,1504
2023-01-01T12:38:14.936Z,1660
2023-01-01T12:39:14.841Z,1468
2023-01-01T12:40:14.842Z,1492
2023-01-01T12:41:14.789Z,1396
2023-01-01T12:42:14.834Z,1360
2023-01-01T12:43:14.762Z,1384
2023-01-01T12:44:14.747Z,1588
2023-01-01T12:45:14.741Z,1776
2023-01-01T12:46:14.753Z,1380
2023-01-01T12:47:14.716Z,1332
2023-01-01T12:48:14.708Z,1812
2023-01-01T12:49:14.697Z,2384
2023-01-01T12:50:14.679Z,2400
2023-01-01T12:51:14.675Z,2324
2023-01-01T12:52:14.661Z,2572
2023-01-01T12:53:14.672Z,2580
2023-01-01T12:54:14.641Z,2696
2023-01-01T12:55:14.630Z,2416
2023-01-01T12:56:14.684Z,2076
2023-01-01T12:57:14.607Z,2236
2023-01-01T12:58:14.607Z,2724
2023-01-01T12:59:14.582Z,2860
2023-01-01T13:00:14.665Z,3008
2023-01-01T13:01:14.562Z,2816
2023-01-01T13:02:14.549Z,2992
2023-01-01T13:03:14.544Z,2084
2023-01-01T13:04:14.544Z,1416
2023-01-01T13:05:14.517Z,1356
2023-01-01T13:06:14.509Z,1448
2023-01-01T13:07:14.498Z,1280
2023-01-01T13:08:14.517Z,1320
2023-01-01T13:09:14.482Z,1572
2023-01-01T13:10:14.480Z,1908
2023-01-01T13:11:14.482Z,1572
2023-01-01T13:12:14.458Z,1484
2023-01-01T13:13:14.451Z,1524
2023-01-01T13:14:14.432Z,1500
2023-01-01T13:15:14.422Z,1416
2023-01-01T13:16:14.408Z,1260
2023-01-01T13:17:14.395Z,1528
2023-01-01T13:18:14.425Z,2172
2023-01-01T13:19:14.375Z,2324
2023-01-01T13:20:14.364Z,2368
2023-01-01T13:21:14.357Z,2420
2023-01-01T13:22:14.354Z,2488
2023-01-01T13:23:14.362Z,2600
2023-01-01T13:24:14.322Z,2684
2023-01-01T13:25:14.308Z,2712
2023-01-01T13:26:14.296Z,2768
2023-01-01T13:27:14.306Z,2716
2023-01-01T13:28:14.285Z,2728
2023-01-01T13:29:14.267Z,2752
2023-01-01T13:30:14.271Z,2932
2023-01-01T13:31:14.248Z,2896
2023-01-01T13:32:14.236Z,2828
2023-01-01T13:33:14.235Z,2800
2023-01-01T13:34:14.223Z,2768
2023-01-01T13:35:14.280Z,2728
2023-01-01T13:36:14.208Z,2572
2023-01-01T13:37:14.230Z,2448
2023-01-01T13:38:14.175Z,2488
2023-01-01T13:39:14.158Z,2640
2023-01-01T13:40:14.147Z,2640
2023-01-01T13:41:14.151Z,2540
2023-01-01T13:42:14.129Z,2464
2023-01-01T13:43:14.135Z,2392
2023-01-01T13:44:14.105Z,2408
2023-01-01T13:45:14.106Z,2280
2023-01-01T13:46:14.089Z,1924
2023-01-01T13:47:14.086Z,1832
2023-01-01T13:48:14.066Z,1832
2023-01-01T13:49:14.058Z,1912
2023-01-01T13:50:14.058Z,1908
2023-01-01T13:51:14.035Z,1808
2023-01-01T13:52:14.024Z,1728
2023-01-01T13:53:14.017Z,1696
2023-01-01T13:54:14.019Z,1664
2023-01-01T13:55:13.992Z,1592
2023-01-01T13:56:13.984Z,1508
2023-01-01T13:57:13.971Z,1504
2023-01-01T13:58:13.963Z,1508
2023-01-01T13:59:13.950Z,1480
2023-01-01T14:00:13.940Z,1472
2023-01-01T14:01:13.927Z,1432
2023-01-01T14:02:13.924Z,1344
2023-01-01T14:03:13.940Z,1268
2023-01-01T14:04:13.996Z,1252
2023-01-01T14:05:13.896Z,1216
2023-01-01T14:06:13.892Z,1200
2023-01-01T14:07:13.957Z,1188
2023-01-01T14:08:13.865Z,1236
2023-01-01T14:09:13.876Z,1328
2023-01-01T14:10:13.833Z,1400
2023-01-01T14:11:13.825Z,1424
2023-01-01T14:12:13.840Z,1360
2023-01-01T14:13:13.800Z,1248
2023-01-01T14:14:13.799Z,1172
2023-01-01T14:15:13.850Z,1156
2023-01-01T14:16:13.790Z,1140